Time;durP1;ratioP1;P1;durP2;ratioP2;P2;SDS_P1;SDS_P2;PMS_P1;PMS_P2;Temp;Humidity;BMP_temperature;BMP_pressure;BME280_temperature;BME280_humidity;BME280_pressure;Samples;Min_cycle;Max_cycle;Signal;HPM_P1;HPM_P2
2021/04/14 00:02:06;;;;;;;10.60;8.40;;;;;;;;;;10039355;29;20207;-61
2021/04/14 00:07:04;;;;;;;11.40;8.63;;;;;;;;;;10044425;29;20048;-62
2021/04/14 00:12:01;;;;;;;12.63;7.72;;;;;;;;;;10043430;29;20050;-62
2021/04/14 00:16:59;;;;;;;9.63;8.30;;;;;;;;;;10042379;29;20091;-63
2021/04/14 00:21:57;;;;;;;10.48;6.65;;;;;;;;;;10043141;29;20091;-61
2021/04/14 00:26:54;;;;;;;9.60;7.35;;;;;;;;;;10041940;29;20075;-61
2021/04/14 00:31:52;;;;;;;9.85;7.40;;;;;;;;;;10043203;29;20064;-61
2021/04/14 00:36:49;;;;;;;9.18;8.27;;;;;;;;;;10042521;29;20484;-61
2021/04/14 00:41:48;;;;;;;9.00;7.20;;;;;;;;;;10042386;29;20468;-62
2021/04/14 00:46:45;;;;;;;12.43;8.77;;;;;;;;;;10042082;29;20133;-62
2021/04/14 00:51:43;;;;;;;13.63;8.50;;;;;;;;;;10042193;29;20035;-62
2021/04/14 00:56:41;;;;;;;10.90;8.65;;;;;;;;;;10040109;29;20095;-62
2021/04/14 01:01:40;;;;;;;11.55;7.47;;;;;;;;;;10041891;29;20055;-62
2021/04/14 01:06:38;;;;;;;9.73;8.75;;;;;;;;;;10041872;29;20040;-62
2021/04/14 01:11:36;;;;;;;13.10;8.15;;;;;;;;;;10041355;29;20501;-62
2021/04/14 01:16:33;;;;;;;9.60;7.88;;;;;;;;;;10040359;29;20086;-61
2021/04/14 01:21:36;;;;;;;8.32;7.40;;;;;;;;;;10040872;29;20087;-62
2021/04/14 01:26:33;;;;;;;10.20;8.70;;;;;;;;;;10040794;29;20048;-62
2021/04/14 01:31:34;;;;;;;11.00;8.63;;;;;;;;;;10040895;29;20059;-62
2021/04/14 01:36:32;;;;;;;12.65;10.02;;;;;;;;;;10040543;29;20079;-62
2021/04/14 01:41:30;;;;;;;12.75;8.55;;;;;;;;;;10040337;29;20043;-62
2021/04/14 01:46:27;;;;;;;9.82;8.70;;;;;;;;;;10040725;29;20086;-62
2021/04/14 01:51:24;;;;;;;11.07;9.18;;;;;;;;;;10039879;29;20050;-63
2021/04/14 01:56:22;;;;;;;11.15;9.70;;;;;;;;;;10039728;29;20102;-63
2021/04/14 02:01:20;;;;;;;10.15;8.35;;;;;;;;;;10039269;29;20491;-62
2021/04/14 02:06:18;;;;;;;10.48;8.98;;;;;;;;;;10039688;29;20414;-63
2021/04/14 02:11:16;;;;;;;13.25;9.90;;;;;;;;;;10039382;29;20051;-64
2021/04/14 02:16:15;;;;;;;13.60;9.48;;;;;;;;;;10038816;29;20454;-61
2021/04/14 02:21:13;;;;;;;9.48;7.65;;;;;;;;;;10039256;29;20059;-61
2021/04/14 02:26:11;;;;;;;11.65;9.20;;;;;;;;;;10036289;29;20051;-61
2021/04/14 02:31:09;;;;;;;11.90;10.73;;;;;;;;;;10036923;29;20533;-62
2021/04/14 02:36:08;;;;;;;22.73;17.50;;;;;;;;;;10037725;29;20533;-61
2021/04/14 02:41:06;;;;;;;15.63;13.75;;;;;;;;;;10037864;29;20649;-61
2021/04/14 02:46:04;;;;;;;16.92;11.05;;;;;;;;;;10036680;29;20079;-62
2021/04/14 02:51:01;;;;;;;13.18;9.38;;;;;;;;;;10038285;29;20118;-62
2021/04/14 02:55:59;;;;;;;14.48;10.77;;;;;;;;;;10037336;29;20102;-61
2021/04/14 03:00:57;;;;;;;15.52;10.60;;;;;;;;;;10037160;29;20055;-61
2021/04/14 03:05:54;;;;;;;14.80;10.68;;;;;;;;;;10037183;29;20051;-61
2021/04/14 03:10:52;;;;;;;10.65;9.60;;;;;;;;;;10038095;29;20079;-61
2021/04/14 03:15:50;;;;;;;13.68;10.88;;;;;;;;;;10035815;29;20087;-60
2021/04/14 03:20:48;;;;;;;11.98;10.55;;;;;;;;;;10037027;29;20048;-61
2021/04/14 03:25:45;;;;;;;15.80;11.10;;;;;;;;;;10036673;29;20051;-61
2021/04/14 03:30:43;;;;;;;13.10;10.32;;;;;;;;;;10036883;29;20498;-61
2021/04/14 03:35:40;;;;;;;17.73;12.05;;;;;;;;;;10035810;29;20094;-62
2021/04/14 03:40:38;;;;;;;12.43;10.75;;;;;;;;;;10043927;29;20059;-62
2021/04/14 03:45:38;;;;;;;22.70;14.88;;;;;;;;;;10044238;29;20048;-63
2021/04/14 03:50:36;;;;;;;25.58;17.75;;;;;;;;;;10044530;29;20067;-62
2021/04/14 03:55:33;;;;;;;19.77;16.23;;;;;;;;;;10044033;29;20494;-62
2021/04/14 04:00:32;;;;;;;22.45;18.33;;;;;;;;;;10044934;29;20408;-62
2021/04/14 04:05:29;;;;;;;14.63;12.60;;;;;;;;;;10043251;29;20425;-62
2021/04/14 04:10:26;;;;;;;15.85;12.60;;;;;;;;;;10043973;29;20055;-62
2021/04/14 04:15:24;;;;;;;15.18;11.10;;;;;;;;;;10044056;29;20090;-62
2021/04/14 04:20:22;;;;;;;18.52;10.65;;;;;;;;;;10044005;29;20083;-62
2021/04/14 04:25:20;;;;;;;13.05;10.88;;;;;;;;;;10042892;29;20445;-63
2021/04/14 04:30:18;;;;;;;13.52;11.00;;;;;;;;;;10043369;29;20094;-62
2021/04/14 04:35:15;;;;;;;11.52;10.15;;;;;;;;;;10043045;29;20087;-62
2021/04/14 04:40:18;;;;;;;16.35;9.80;;;;;;;;;;10043277;29;20083;-62
2021/04/14 04:45:16;;;;;;;13.45;11.18;;;;;;;;;;10043308;29;20056;-62
2021/04/14 04:50:14;;;;;;;18.27;13.75;;;;;;;;;;10041481;29;20083;-62
2021/04/14 04:55:12;;;;;;;15.13;12.65;;;;;;;;;;10042063;29;20083;-62
2021/04/14 05:00:11;;;;;;;20.42;12.75;;;;;;;;;;10040918;29;20564;-61
2021/04/14 05:05:11;;;;;;;20.92;14.20;;;;;;;;;;10040169;29;20422;-61
2021/04/14 05:10:09;;;;;;;26.38;22.65;;;;;;;;;;10040854;29;20544;-61
2021/04/14 05:15:07;;;;;;;19.90;14.45;;;;;;;;;;10041607;29;20102;-61
2021/04/14 05:20:06;;;;;;;14.50;13.02;;;;;;;;;;10041893;29;20079;-61
2021/04/14 05:25:05;;;;;;;22.77;16.65;;;;;;;;;;10041825;29;20086;-64
2021/04/14 05:30:02;;;;;;;24.48;21.10;;;;;;;;;;10040980;29;20048;-62
2021/04/14 05:34:59;;;;;;;16.52;14.07;;;;;;;;;;10041358;29;20460;-64
2021/04/14 05:39:57;;;;;;;18.17;14.57;;;;;;;;;;10041034;29;20077;-62
2021/04/14 05:44:55;;;;;;;16.80;13.60;;;;;;;;;;10041039;29;20481;-63
2021/04/14 05:49:52;;;;;;;17.83;13.38;;;;;;;;;;10040974;29;20082;-61
2021/04/14 05:54:49;;;;;;;22.50;15.18;;;;;;;;;;10040487;29;20493;-62
2021/04/14 05:59:47;;;;;;;14.07;12.52;;;;;;;;;;10039941;29;20086;-61
2021/04/14 06:04:45;;;;;;;14.60;13.02;;;;;;;;;;10040079;29;20470;-62
2021/04/14 06:09:42;;;;;;;9.82;8.13;;;;;;;;;;10039821;29;20048;-63
2021/04/14 06:14:40;;;;;;;24.13;17.40;;;;;;;;;;10039694;29;20087;-62
2021/04/14 06:19:38;;;;;;;7.82;5.75;;;;;;;;;;10038656;29;20043;-63
2021/04/14 06:24:35;;;;;;;7.60;6.57;;;;;;;;;;10039724;29;20040;-62
2021/04/14 06:29:33;;;;;;;6.10;5.32;;;;;;;;;;10038959;29;20063;-63
2021/04/14 06:34:30;;;;;;;9.60;6.65;;;;;;;;;;10038215;29;20083;-62
2021/04/14 06:39:32;;;;;;;5.18;4.68;;;;;;;;;;10038939;29;20300;-61
2021/04/14 06:44:39;;;;;;;11.57;9.68;;;;;;;;;;10037317;29;20055;-62
2021/04/14 06:49:40;;;;;;;6.55;5.90;;;;;;;;;;10037599;29;20076;-64
2021/04/14 06:54:43;;;;;;;7.78;7.07;;;;;;;;;;10036839;29;20087;-61
2021/04/14 06:59:43;;;;;;;6.57;6.00;;;;;;;;;;10038738;29;20338;-63
2021/04/14 07:04:43;;;;;;;7.80;7.00;;;;;;;;;;10038338;29;20071;-63
2021/04/14 07:09:44;;;;;;;7.75;6.95;;;;;;;;;;10037216;29;20508;-63
2021/04/14 07:14:42;;;;;;;7.43;5.80;;;;;;;;;;10037498;29;20514;-63
2021/04/14 07:19:49;;;;;;;8.02;7.22;;;;;;;;;;10038054;29;20079;-61
2021/04/14 07:24:49;;;;;;;5.78;5.10;;;;;;;;;;10037222;29;20078;-63
2021/04/14 07:29:49;;;;;;;4.85;4.30;;;;;;;;;;10037661;29;20090;-63
2021/04/14 07:34:51;;;;;;;10.95;7.85;;;;;;;;;;10037898;29;20079;-62
2021/04/14 07:39:53;;;;;;;8.02;6.65;;;;;;;;;;10035050;29;20078;-63
2021/04/14 07:44:59;;;;;;;27.13;22.27;;;;;;;;;;10038188;29;20481;-63
2021/04/14 07:49:57;;;;;;;14.23;12.75;;;;;;;;;;10037704;29;20043;-63
2021/04/14 07:54:56;;;;;;;14.95;12.32;;;;;;;;;;10035991;29;20083;-63
2021/04/14 07:59:53;;;;;;;10.02;8.98;;;;;;;;;;10035733;29;20048;-61
2021/04/14 08:04:52;;;;;;;14.38;10.27;;;;;;;;;;10036924;29;20044;-61
2021/04/14 08:09:53;;;;;;;8.68;6.85;;;;;;;;;;10037477;29;20055;-62
2021/04/14 08:14:51;;;;;;;6.50;5.18;;;;;;;;;;10036221;29;20054;-61
2021/04/14 08:19:57;;;;;;;6.43;5.65;;;;;;;;;;10037199;29;20070;-61
2021/04/14 08:24:56;;;;;;;7.63;5.50;;;;;;;;;;10041913;29;20520;-61
2021/04/14 08:30:05;;;;;;;15.00;10.77;;;;;;;;;;10045461;29;20536;-61
2021/04/14 08:35:06;;;;;;;7.53;6.63;;;;;;;;;;10044183;29;20498;-62
2021/04/14 08:40:06;;;;;;;8.18;6.22;;;;;;;;;;10043863;29;20047;-61
2021/04/14 08:45:15;;;;;;;5.97;5.38;;;;;;;;;;10042500;29;20039;-63
2021/04/14 08:50:16;;;;;;;9.20;6.93;;;;;;;;;;10043652;29;20059;-61
2021/04/14 08:55:13;;;;;;;9.07;7.32;;;;;;;;;;10043414;29;20093;-62
2021/04/14 09:00:12;;;;;;;9.18;7.97;;;;;;;;;;10042829;29;20079;-61
2021/04/14 09:05:13;;;;;;;9.63;5.80;;;;;;;;;;10042679;29;20489;-62
2021/04/14 09:10:11;;;;;;;7.75;5.57;;;;;;;;;;10042843;29;20110;-62
2021/04/14 09:15:09;;;;;;;9.50;6.45;;;;;;;;;;10042103;29;20090;-61
2021/04/14 09:20:10;;;;;;;12.73;9.43;;;;;;;;;;10042046;29;20047;-61
2021/04/14 09:25:12;;;;;;;8.63;7.28;;;;;;;;;;10042120;29;20432;-60
2021/04/14 09:30:13;;;;;;;8.95;7.93;;;;;;;;;;10042084;29;20452;-62
2021/04/14 09:35:16;;;;;;;9.18;7.07;;;;;;;;;;10040910;29;20093;-62
2021/04/14 09:40:25;;;;;;;12.77;11.13;;;;;;;;;;10041553;29;20509;-61
2021/04/14 09:45:34;;;;;;;10.52;9.52;;;;;;;;;;10041345;29;20075;-61
2021/04/14 09:50:37;;;;;;;12.10;10.75;;;;;;;;;;10040900;29;20051;-61
2021/04/14 09:55:41;;;;;;;11.00;9.88;;;;;;;;;;10039781;29;20090;-61
2021/04/14 10:00:40;;;;;;;45.88;26.58;;;;;;;;;;10039078;29;20484;-61
2021/04/14 10:05:38;;;;;;;9.50;7.25;;;;;;;;;;10038259;29;20048;-62
2021/04/14 10:10:40;;;;;;;17.42;11.30;;;;;;;;;;10039365;29;20036;-61
2021/04/14 10:15:38;;;;;;;33.20;17.23;;;;;;;;;;10039347;29;20091;-61
2021/04/14 10:20:37;;;;;;;20.25;11.15;;;;;;;;;;10038517;29;20043;-62
2021/04/14 10:25:36;;;;;;;34.20;21.38;;;;;;;;;;10039185;29;20044;-61
2021/04/14 10:30:35;;;;;;;46.80;35.47;;;;;;;;;;10039005;29;20414;-62
2021/04/14 10:35:33;;;;;;;17.40;12.45;;;;;;;;;;10038238;29;20524;-61
2021/04/14 10:40:32;;;;;;;14.30;10.73;;;;;;;;;;10036943;29;20048;-62
2021/04/14 10:45:30;;;;;;;21.92;14.63;;;;;;;;;;10038057;29;20059;-60
2021/04/14 10:50:29;;;;;;;21.88;15.40;;;;;;;;;;10038400;29;20079;-60
2021/04/14 10:55:28;;;;;;;22.55;15.32;;;;;;;;;;10038562;29;20130;-62
2021/04/14 11:00:30;;;;;;;33.78;19.50;;;;;;;;;;10038772;29;20430;-61
2021/04/14 11:05:28;;;;;;;18.48;14.55;;;;;;;;;;10038470;29;20071;-62
2021/04/14 11:10:27;;;;;;;17.17;12.82;;;;;;;;;;10038605;29;20039;-63
2021/04/14 11:15:26;;;;;;;30.92;19.42;;;;;;;;;;10037956;29;20083;-61
2021/04/14 11:20:26;;;;;;;29.90;18.02;;;;;;;;;;10038298;29;20547;-61
2021/04/14 11:25:25;;;;;;;50.38;34.63;;;;;;;;;;10038274;29;20068;-61
2021/04/14 11:30:24;;;;;;;45.53;26.80;;;;;;;;;;10037137;29;20494;-61
2021/04/14 11:35:30;;;;;;;14.27;10.70;;;;;;;;;;10037911;29;20083;-62
2021/04/14 11:40:35;;;;;;;13.80;10.15;;;;;;;;;;10038214;29;20497;-62
2021/04/14 11:45:34;;;;;;;7.47;6.55;;;;;;;;;;10037111;29;20044;-61
2021/04/14 11:50:33;;;;;;;8.23;6.07;;;;;;;;;;10036297;29;20067;-62
2021/04/14 11:55:36;;;;;;;10.27;7.72;;;;;;;;;;10036983;29;20083;-63
2021/04/14 12:00:40;;;;;;;5.60;5.05;;;;;;;;;;10042386;29;20079;-62
2021/04/14 12:05:37;;;;;;;9.98;8.10;;;;;;;;;;10044682;29;20090;-62
2021/04/14 12:10:35;;;;;;;8.15;5.30;;;;;;;;;;10043874;29;20458;-63
2021/04/14 12:15:33;;;;;;;8.02;6.35;;;;;;;;;;10043723;29;20090;-62
2021/04/14 12:20:30;;;;;;;5.40;4.50;;;;;;;;;;10044502;29;20047;-62
2021/04/14 12:25:27;;;;;;;9.25;6.75;;;;;;;;;;10044005;29;20084;-62
2021/04/14 12:30:27;;;;;;;11.70;8.90;;;;;;;;;;10043120;29;20063;-63
2021/04/14 12:35:44;;;;;;;16.50;13.13;;;;;;;;;;10042783;28;20106;-62
2021/04/14 12:40:49;;;;;;;9.83;8.30;;;;;;;;;;10042879;29;20054;-61
2021/04/14 12:45:48;;;;;;;11.27;8.95;;;;;;;;;;10042870;29;20086;-61
2021/04/14 12:50:57;;;;;;;10.38;8.25;;;;;;;;;;10042687;29;20101;-62
2021/04/14 12:55:54;;;;;;;15.38;10.13;;;;;;;;;;10040433;29;20094;-63
2021/04/14 13:00:53;;;;;;;15.05;9.43;;;;;;;;;;10041897;29;20051;-62
2021/04/14 13:05:54;;;;;;;15.90;8.98;;;;;;;;;;10041333;29;20487;-64
2021/04/14 13:11:05;;;;;;;15.02;9.63;;;;;;;;;;10040950;29;20087;-62
2021/04/14 13:16:05;;;;;;;10.80;8.48;;;;;;;;;;10041676;29;20087;-61
2021/04/14 13:21:10;;;;;;;7.95;7.15;;;;;;;;;;10040506;29;20078;-63
2021/04/14 13:26:10;;;;;;;7.75;7.03;;;;;;;;;;10040745;29;20048;-63
2021/04/14 13:31:16;;;;;;;8.23;6.78;;;;;;;;;;10041629;29;20082;-62
2021/04/14 13:36:16;;;;;;;8.52;7.63;;;;;;;;;;10039503;29;20501;-63
2021/04/14 13:41:16;;;;;;;13.57;9.90;;;;;;;;;;10040046;29;20083;-61
2021/04/14 13:46:19;;;;;;;39.92;22.35;;;;;;;;;;10040310;29;20079;-62
2021/04/14 13:51:18;;;;;;;13.32;9.57;;;;;;;;;;10040314;29;20071;-62
2021/04/14 13:56:25;;;;;;;10.57;7.95;;;;;;;;;;10039871;29;20078;-61
2021/04/14 14:01:25;;;;;;;16.30;12.70;;;;;;;;;;10039843;29;20131;-61
2021/04/14 14:06:33;;;;;;;14.48;11.68;;;;;;;;;;10039367;29;20096;-62
2021/04/14 14:11:33;;;;;;;13.77;10.35;;;;;;;;;;10036992;29;20079;-61
2021/04/14 14:16:35;;;;;;;10.98;7.38;;;;;;;;;;10038503;29;20512;-62
2021/04/14 14:21:35;;;;;;;9.90;7.60;;;;;;;;;;10039051;29;20071;-62
2021/04/14 14:26:34;;;;;;;10.27;8.20;;;;;;;;;;10038933;29;20048;-62
2021/04/14 14:31:33;;;;;;;13.23;9.70;;;;;;;;;;10038558;29;20060;-62
2021/04/14 14:36:33;;;;;;;29.08;20.60;;;;;;;;;;10029802;29;20536;-60
2021/04/14 14:41:32;;;;;;;23.95;14.95;;;;;;;;;;10012435;29;20083;-64
2021/04/14 14:46:32;;;;;;;29.95;17.85;;;;;;;;;;10009873;29;20473;-62
2021/04/14 14:51:30;;;;;;;10.50;8.73;;;;;;;;;;10012827;29;20079;-62
2021/04/14 14:56:30;;;;;;;9.80;8.85;;;;;;;;;;10025153;29;20115;-62
2021/04/14 15:01:28;;;;;;;15.60;10.48;;;;;;;;;;10012051;29;20086;-62
2021/04/14 15:06:26;;;;;;;32.47;21.52;;;;;;;;;;10012839;29;20086;-62
2021/04/14 15:11:26;;;;;;;20.27;13.30;;;;;;;;;;10022415;29;20075;-61
2021/04/14 15:16:23;;;;;;;16.00;11.98;;;;;;;;;;10011416;29;20082;-62
2021/04/14 15:21:20;;;;;;;21.17;13.13;;;;;;;;;;10020860;29;20086;-61
2021/04/14 15:26:22;;;;;;;13.10;10.38;;;;;;;;;;10019389;29;20094;-62
2021/04/14 15:31:21;;;;;;;18.67;12.18;;;;;;;;;;10023418;29;20088;-62
2021/04/14 15:36:20;;;;;;;14.38;11.82;;;;;;;;;;10004373;29;20052;-61
2021/04/14 15:41:18;;;;;;;11.48;10.38;;;;;;;;;;10005734;29;20071;-62
2021/04/14 15:46:15;;;;;;;14.85;11.65;;;;;;;;;;10005314;29;20114;-62
2021/04/14 15:51:14;;;;;;;16.27;13.32;;;;;;;;;;10013335;29;20111;-61
2021/04/14 15:56:12;;;;;;;14.75;12.02;;;;;;;;;;10022422;29;20079;-61
2021/04/14 16:01:12;;;;;;;10.98;9.70;;;;;;;;;;10005471;29;20044;-62
2021/04/14 16:06:09;;;;;;;8.75;7.65;;;;;;;;;;10027840;29;20479;-61
2021/04/14 16:11:08;;;;;;;15.13;12.30;;;;;;;;;;10041938;29;20054;-65
2021/04/14 16:16:06;;;;;;;11.25;8.95;;;;;;;;;;10043739;29;20095;-61
2021/04/14 16:21:04;;;;;;;12.40;11.10;;;;;;;;;;10044186;29;20047;-62
2021/04/14 16:26:02;;;;;;;18.30;15.25;;;;;;;;;;10043050;29;20051;-61
2021/04/14 16:31:00;;;;;;;62.40;44.40;;;;;;;;;;10043043;29;20091;-62
2021/04/14 16:35:58;;;;;;;17.25;14.07;;;;;;;;;;10042546;29;20087;-64
2021/04/14 16:40:55;;;;;;;17.10;14.10;;;;;;;;;;10041054;29;20510;-61
2021/04/14 16:45:52;;;;;;;22.17;15.95;;;;;;;;;;10040921;29;20079;-61
2021/04/14 16:50:51;;;;;;;17.92;11.75;;;;;;;;;;10041527;29;20102;-62
2021/04/14 16:55:48;;;;;;;20.50;14.55;;;;;;;;;;10041771;29;20083;-62
2021/04/14 17:00:45;;;;;;;21.58;15.30;;;;;;;;;;10041865;29;20074;-63
2021/04/14 17:05:42;;;;;;;25.33;15.27;;;;;;;;;;10039229;29;20067;-59
2021/04/14 17:10:42;;;;;;;32.45;19.67;;;;;;;;;;10019226;29;20083;-59
2021/04/14 17:15:39;;;;;;;24.17;17.15;;;;;;;;;;10015665;29;20067;-61
2021/04/14 17:20:36;;;;;;;25.70;17.50;;;;;;;;;;10015111;29;20552;-61
2021/04/14 17:25:35;;;;;;;35.90;25.73;;;;;;;;;;10020383;29;20493;-61
2021/04/14 17:30:35;;;;;;;29.30;21.67;;;;;;;;;;10015578;29;20576;-63
2021/04/14 17:35:32;;;;;;;48.83;35.20;;;;;;;;;;10020206;29;20072;-62
2021/04/14 17:40:31;;;;;;;27.63;18.50;;;;;;;;;;10008185;29;20514;-63
2021/04/14 17:45:28;;;;;;;28.52;20.70;;;;;;;;;;10011903;29;20522;-62
2021/04/14 17:50:29;;;;;;;29.15;21.60;;;;;;;;;;10020881;29;20059;-62
2021/04/14 17:55:28;;;;;;;32.47;24.13;;;;;;;;;;10015670;29;20075;-63
2021/04/14 18:00:26;;;;;;;47.28;32.95;;;;;;;;;;10019838;29;20083;-62
2021/04/14 18:05:24;;;;;;;24.20;20.65;;;;;;;;;;10010006;29;20068;-61
2021/04/14 18:10:23;;;;;;;24.27;20.10;;;;;;;;;;10012352;29;20618;-63
2021/04/14 18:15:20;;;;;;;36.55;29.38;;;;;;;;;;10014762;29;20124;-61
2021/04/14 18:20:20;;;;;;;27.42;21.38;;;;;;;;;;10022341;29;20090;-61
2021/04/14 18:25:19;;;;;;;34.05;22.65;;;;;;;;;;10039901;29;20047;-61
2021/04/14 18:30:19;;;;;;;41.35;27.00;;;;;;;;;;10039197;29;20059;-61
2021/04/14 18:35:16;;;;;;;42.92;26.75;;;;;;;;;;10039137;29;20481;-62
2021/04/14 18:40:14;;;;;;;27.50;21.25;;;;;;;;;;10038274;29;20086;-62
2021/04/14 18:45:12;;;;;;;23.83;18.20;;;;;;;;;;10039101;29;20091;-62
2021/04/14 18:50:12;;;;;;;19.20;16.38;;;;;;;;;;10037162;29;20048;-63
2021/04/14 18:55:10;;;;;;;17.55;15.45;;;;;;;;;;10037633;29;20079;-61
2021/04/14 19:00:08;;;;;;;18.08;16.23;;;;;;;;;;10038928;29;20090;-61
2021/04/14 19:05:06;;;;;;;18.38;15.48;;;;;;;;;;10038154;29;20047;-61
2021/04/14 19:10:06;;;;;;;20.27;17.38;;;;;;;;;;10036291;29;20048;-64
2021/04/14 19:15:10;;;;;;;16.33;12.98;;;;;;;;;;10030549;29;20537;-61
2021/04/14 19:20:09;;;;;;;15.73;13.48;;;;;;;;;;10013697;29;20083;-63
2021/04/14 19:25:08;;;;;;;21.33;13.70;;;;;;;;;;9999745;29;20127;-62
2021/04/14 19:30:07;;;;;;;16.73;12.30;;;;;;;;;;10005479;29;20132;-62
2021/04/14 19:35:05;;;;;;;33.00;18.90;;;;;;;;;;10035401;29;20079;-62
2021/04/14 19:40:04;;;;;;;30.95;19.15;;;;;;;;;;10028729;29;20503;-62
2021/04/14 19:45:03;;;;;;;21.15;14.88;;;;;;;;;;9997152;29;20071;-63
2021/04/14 19:50:01;;;;;;;26.13;17.70;;;;;;;;;;9996901;29;20087;-63
2021/04/14 19:54:58;;;;;;;16.63;13.63;;;;;;;;;;9997693;29;20087;-63
2021/04/14 19:59:56;;;;;;;30.58;18.38;;;;;;;;;;9994922;29;20522;-62
2021/04/14 20:04:54;;;;;;;28.35;20.50;;;;;;;;;;9998325;29;20056;-62
2021/04/14 20:09:51;;;;;;;21.42;14.45;;;;;;;;;;9998522;29;20075;-61
2021/04/14 20:14:49;;;;;;;14.27;12.52;;;;;;;;;;9998322;29;20070;-61
2021/04/14 20:19:46;;;;;;;19.70;14.70;;;;;;;;;;10001348;29;20157;-61
2021/04/14 20:24:45;;;;;;;17.95;13.85;;;;;;;;;;10004619;29;20091;-63
2021/04/14 20:29:42;;;;;;;21.40;14.02;;;;;;;;;;10004422;29;20080;-60
2021/04/14 20:34:39;;;;;;;19.55;11.75;;;;;;;;;;10005238;29;20082;-60
2021/04/14 20:39:36;;;;;;;16.05;11.98;;;;;;;;;;10004876;29;20086;-62
2021/04/14 20:44:36;;;;;;;21.95;15.60;;;;;;;;;;10005067;29;20044;-60
2021/04/14 20:49:34;;;;;;;12.63;11.32;;;;;;;;;;10004476;29;20091;-61
2021/04/14 20:54:31;;;;;;;12.93;11.63;;;;;;;;;;10004468;29;20044;-62
2021/04/14 20:59:28;;;;;;;11.02;8.77;;;;;;;;;;10004448;29;20084;-61
2021/04/14 21:04:27;;;;;;;11.88;9.23;;;;;;;;;;10002389;29;20051;-61
2021/04/14 21:09:24;;;;;;;12.25;9.75;;;;;;;;;;10004373;29;20490;-62
2021/04/14 21:14:21;;;;;;;13.85;9.20;;;;;;;;;;10003784;29;20517;-62
2021/04/14 21:19:21;;;;;;;12.05;8.95;;;;;;;;;;10003385;29;20525;-60
2021/04/14 21:24:20;;;;;;;8.85;7.32;;;;;;;;;;10002889;29;20052;-62
2021/04/14 21:29:17;;;;;;;12.30;9.27;;;;;;;;;;10002491;29;20079;-62
2021/04/14 21:34:14;;;;;;;14.07;11.43;;;;;;;;;;10002569;29;20048;-62
2021/04/14 21:39:12;;;;;;;9.88;8.82;;;;;;;;;;10002932;29;20088;-62
2021/04/14 21:44:10;;;;;;;8.63;7.20;;;;;;;;;;10002890;29;20126;-63
2021/04/14 21:49:07;;;;;;;8.68;7.70;;;;;;;;;;10001128;29;20450;-62
2021/04/14 21:54:05;;;;;;;8.48;7.57;;;;;;;;;;10002259;29;20462;-60
2021/04/14 21:59:02;;;;;;;8.43;7.18;;;;;;;;;;10002061;29;20473;-61
2021/04/14 22:04:01;;;;;;;8.98;8.18;;;;;;;;;;10001442;29;20071;-62
2021/04/14 22:08:58;;;;;;;8.57;7.55;;;;;;;;;;10001931;29;20506;-61
2021/04/14 22:13:55;;;;;;;9.68;7.43;;;;;;;;;;10001055;29;20465;-61
2021/04/14 22:18:53;;;;;;;8.68;7.45;;;;;;;;;;10000914;29;20084;-61
2021/04/14 22:23:52;;;;;;;10.27;8.57;;;;;;;;;;10000608;29;20060;-61
2021/04/14 22:28:49;;;;;;;9.02;8.13;;;;;;;;;;10000759;29;20063;-61
2021/04/14 22:33:46;;;;;;;9.43;8.27;;;;;;;;;;10000582;29;20115;-61
2021/04/14 22:38:44;;;;;;;8.45;7.53;;;;;;;;;;10000187;29;20473;-62
2021/04/14 22:43:43;;;;;;;8.48;7.63;;;;;;;;;;10000561;29;20537;-62
2021/04/14 22:48:40;;;;;;;8.48;7.45;;;;;;;;;;10000348;29;20079;-63
2021/04/14 22:53:40;;;;;;;9.02;7.70;;;;;;;;;;9999868;29;20087;-63
2021/04/14 22:58:37;;;;;;;8.02;6.97;;;;;;;;;;9999682;29;20083;-63
2021/04/14 23:03:36;;;;;;;8.38;7.57;;;;;;;;;;9999060;29;20087;-63
2021/04/14 23:08:34;;;;;;;7.72;6.93;;;;;;;;;;9999377;29;20076;-61
2021/04/14 23:13:31;;;;;;;7.75;6.95;;;;;;;;;;9998922;29;20082;-61
2021/04/14 23:18:29;;;;;;;8.23;7.07;;;;;;;;;;9999007;29;20080;-62
2021/04/14 23:23:28;;;;;;;6.97;6.28;;;;;;;;;;9999218;29;20076;-63
2021/04/14 23:28:26;;;;;;;7.05;5.82;;;;;;;;;;9999112;29;20056;-62
2021/04/14 23:33:24;;;;;;;6.30;5.70;;;;;;;;;;9997879;29;20438;-62
2021/04/14 23:38:23;;;;;;;6.40;5.80;;;;;;;;;;9998745;29;20088;-62
2021/04/14 23:43:22;;;;;;;6.35;5.75;;;;;;;;;;9998755;29;20083;-62
2021/04/14 23:48:21;;;;;;;9.05;6.20;;;;;;;;;;9999060;29;20102;-60
2021/04/14 23:53:19;;;;;;;8.98;7.85;;;;;;;;;;9999341;29;20071;-61
2021/04/14 23:58:18;;;;;;;5.60;5.07;;;;;;;;;;10006275;29;20162;-61
